DW6557 Weather Reports


Display with metric or nautical units.
time (UTC)temp
F
wind
direction
speed
MPH
gust
MPH
rain 1hr
in
rain 24hr
in
rain mn
in
humidity
%
barometer
mb
20190223191532 55 101 3.0 8.0 0.00 0.13 0.09 98 1023.4
20190223190027 55 130 2.0 11.0 0.00 0.15 0.09 98 1023.5
20190223184524 54 143 3.0 10.0 0.00 0.15 0.09 99 1023.7
20190223183023 53 94 0.0 3.0 0.00 0.15 0.09 99 1024.1
20190223181518 51 104 0.0 4.0 0.00 0.15 0.09 99 1024.5
20190223180003 50 47 0.0 5.0 0.00 0.17 0.09 98 1024.8
20190223174723 49 5 1.0 5.0 0.00 0.17 0.09 98 1025.1
20190223173148 49 77 2.0 9.0 0.00 0.17 0.09 98 1025.4
20190223171755 49 51 2.0 10.0 0.00 0.17 0.09 98 1025.9
20190223170218 49 76 2.0 9.0 0.00 0.17 0.09 98 1026.5
20190223164704 49 64 2.0 9.0 0.00 0.17 0.09 98 1026.7
20190223163136 49 74 3.0 9.0 0.00 0.17 0.09 98 1027.0
20190223161647 48 70 3.0 10.0 0.00 0.17 0.09 98 1027.5
20190223160157 48 19 3.0 9.0 0.00 0.17 0.09 98 1027.5
20190223154626 48 24 1.0 9.0 0.00 0.17 0.09 98 1027.7
20190223153138 49 30 2.0 6.0 0.00 0.17 0.09 98 1027.5
20190223151607 48 59 2.0 9.0 0.00 0.17 0.09 98 1027.6
20190223150100 48 46 2.0 10.0 0.00 0.17 0.09 98 1027.7
20190223144635 48 70 3.0 11.0 0.00 0.17 0.09 98 1027.9
20190223143049 48 69 4.0 13.0 0.01 0.17 0.09 98 1027.7
20190223141603 48 58 4.0 15.0 0.02 0.17 0.09 98 1028.0
20190223140054 47 91 1.0 10.0 0.02 0.17 0.09 98 1028.0
20190223134615 47 17 1.0 10.0 0.02 0.17 0.09 98 1027.9
20190223133135 47 90 5.0 11.0 0.01 0.16 0.08 98 1028.1
20190223131624 47 57 3.0 10.0 0.01 0.15 0.07 98 1028.1
20190223130056 47 70 3.0 12.0 0.01 0.15 0.07 98 1028.1
20190223124553 47 103 2.0 12.0 0.01 0.15 0.07 98 1027.9
20190223123046 47 67 4.0 11.0 0.01 0.15 0.07 98 1027.5
20190223121557 47 84 3.0 14.0 0.00 0.14 0.06 98 1027.4
20190223120059 47 54 4.0 12.0 0.00 0.14 0.06 97 1028.0
20190223114604 46 84 5.0 12.0 0.00 0.14 0.06 97 1027.7
20190223113101 46 49 3.0 18.0 0.00 0.14 0.06 97 1027.8
20190223111557 46 31 5.0 14.0 0.00 0.14 0.06 97 1027.5
20190223110057 46 53 4.0 15.0 0.00 0.15 0.06 97 1027.8
20190223104538 45 30 4.0 16.0 0.00 0.15 0.06 97 1028.0
20190223103024 46 126 5.0 16.0 0.00 0.15 0.06 97 1028.1
20190223101535 46 30 5.0 13.0 0.00 0.15 0.06 97 1028.3
20190223100113 46 63 5.0 15.0 0.00 0.15 0.06 96 1028.2
20190223094544 46 69 5.0 18.0 0.01 0.15 0.06 96 1028.0
20190223093031 45 57 6.0 17.0 0.01 0.15 0.06 96 1028.0
20190223091533 45 53 5.0 15.0 0.01 0.15 0.06 96 1027.9
20190223090020 45 5 3.0 16.0 0.01 0.15 0.06 96 1028.0
20190223084538 45 30 6.0 15.0 0.00 0.14 0.05 97 1028.1
20190223083016 45 46 4.0 16.0 0.00 0.14 0.05 97 1028.3
20190223081526 45 61 6.0 16.0 0.01 0.14 0.05 97 1028.3
20190223080013 45 360 8.0 15.0 0.03 0.14 0.05 97 1028.6
20190223074502 45 78 6.0 19.0 0.03 0.14 0.05 97 1028.3
20190223073144 45 84 5.0 17.0 0.04 0.14 0.05 97 1028.6
20190223071616 45 323 7.0 17.0 0.03 0.13 0.04 97 1028.9
20190223070213 45 13 8.0 18.0 0.01 0.11 0.02 97 1029.2
20190223070013 45 360 7.0 18.0 0.01 0.11 0.02 97 1029.2
20190223064631 45 51 5.0 17.0 0.01 0.11 0.02 97 1029.0
20190223063211 45 23 5.0 15.0 0.00 0.10 0.01 97 1029.2
20190223061646 45 86 7.0 18.0 0.01 0.10 0.01 97 1028.9
20190223060145 45 54 6.0 15.0 0.01 0.10 0.01 97 1029.1
20190223054659 46 355 6.0 18.0 0.01 0.10 0.01 97 1029.5
20190223053201 46 344 7.0 17.0 0.01 0.10 0.01 97 1029.0
20190223051803 46 16 4.0 13.0 0.00 0.09 0.00 97 1029.1
20190223050132 45 82 3.0 15.0 0.00 0.09 0.09 97 1029.1
20190223044640 45 31 2.0 18.0 0.00 0.09 0.09 97 1028.9
20190223043107 46 63 5.0 13.0 0.00 0.09 0.09 97 1029.0
20190223041613 46 15 2.0 16.0 0.00 0.09 0.09 97 1029.1
20190223040127 46 37 5.0 15.0 0.00 0.09 0.09 97 1029.2
20190223034622 46 43 5.0 17.0 0.00 0.09 0.09 97 1029.2
20190223033112 46 17 4.0 13.0 0.00 0.09 0.09 97 1029.6
20190223031555 46 31 5.0 14.0 0.01 0.09 0.09 97 1029.5
20190223024554 46 81 5.0 19.0 0.01 0.09 0.09 97 1029.7
20190223023142 46 350 9.0 16.0 0.01 0.09 0.09 97 1029.9
20190223021541 46 24 5.0 16.0 0.00 0.08 0.08 97 1029.7
20190223020035 46 300 6.0 20.0 0.00 0.08 0.08 97 1029.7
20190223014624 46 37 8.0 21.0 0.00 0.08 0.08 97 1029.6
20190223013055 45 39 8.0 22.0 0.01 0.08 0.08 97 1029.4
20190223011544 45 30 5.0 19.0 0.01 0.08 0.08 97 1029.3
20190223010025 45 49 9.0 21.0 0.01 0.08 0.08 96 1029.5
20190223004537 46 50 8.0 19.0 0.01 0.08 0.08 96 1029.5
20190223003031 46 9 6.0 19.0 0.00 0.07 0.07 96 1029.4
20190223001527 46 5 8.0 18.0 0.00 0.07 0.07 96 1029.2
20190223000010 46 5 7.0 15.0 0.00 0.07 0.07 96 1028.9
20190222234514 46 360 7.0 17.0 0.00 0.07 0.07 96 1028.8
20190222233012 46 61 5.0 12.0 0.00 0.07 0.07 97 1028.5
20190222231502 46 339 3.0 13.0 0.00 0.07 0.07 97 1028.4
20190222230127 46 80 4.0 13.0 0.00 0.07 0.07 97 1028.2
20190222224746 46 71 3.0 11.0 0.00 0.07 0.07 97 1028.1
20190222223223 46 52 4.0 13.0 0.01 0.07 0.07 97 1028.1
20190222221636 46 17 6.0 12.0 0.01 0.07 0.07 97 1027.9
20190222220154 46 31 3.0 14.0 0.01 0.07 0.07 97 1027.8
20190222214726 47 43 3.0 11.0 0.01 0.07 0.07 97 1027.8
20190222213143 47 43 3.0 14.0 0.00 0.06 0.06 97 1027.8
20190222211650 47 19 5.0 13.0 0.00 0.06 0.06 97 1027.5
20190222210142 47 10 5.0 15.0 0.00 0.06 0.06 97 1027.6
20190222204630 47 16 4.0 15.0 0.00 0.06 0.06 97 1027.5
20190222203125 47 72 3.0 13.0 0.00 0.06 0.06 97 1027.6
20190222201627 47 30 6.0 16.0 0.01 0.06 0.06 97 1027.6
20190222200223 47 36 5.0 15.0 0.01 0.06 0.06 97 1027.7
20190222194643 47 15 7.0 16.0 0.02 0.06 0.06 97 1027.8
20190222193232 46 42 7.0 17.0 0.02 0.06 0.06 97 1027.9